sensor_id;sensor_type;location;lat;lon;timestamp;temperature;humidity
42421;DHT22;28063;48.140;11.588;2023-04-24T00:00:23;10.90;99.90
42421;DHT22;28063;48.140;11.588;2023-04-24T00:02:49;10.90;99.90
42421;DHT22;28063;48.140;11.588;2023-04-24T00:05:16;10.90;99.90
42421;DHT22;28063;48.140;11.588;2023-04-24T00:07:43;10.90;99.90
42421;DHT22;28063;48.140;11.588;2023-04-24T00:10:10;10.90;99.90
42421;DHT22;28063;48.140;11.588;2023-04-24T00:12:36;10.90;99.90
42421;DHT22;28063;48.140;11.588;2023-04-24T00:15:02;10.90;99.90
42421;DHT22;28063;48.140;11.588;2023-04-24T00:17:28;10.90;99.90
42421;DHT22;28063;48.140;11.588;2023-04-24T00:19:53;10.80;99.90
42421;DHT22;28063;48.140;11.588;2023-04-24T00:22:27;10.80;99.90
42421;DHT22;28063;48.140;11.588;2023-04-24T00:24:53;10.70;99.90
42421;DHT22;28063;48.140;11.588;2023-04-24T00:27:18;10.70;99.90
42421;DHT22;28063;48.140;11.588;2023-04-24T00:29:44;10.70;99.90
42421;DHT22;28063;48.140;11.588;2023-04-24T00:32:10;10.70;99.90
42421;DHT22;28063;48.140;11.588;2023-04-24T00:34:36;10.70;99.90
42421;DHT22;28063;48.140;11.588;2023-04-24T00:37:01;10.70;99.90
42421;DHT22;28063;48.140;11.588;2023-04-24T00:39:27;10.70;99.90
42421;DHT22;28063;48.140;11.588;2023-04-24T00:41:53;10.70;99.90
42421;DHT22;28063;48.140;11.588;2023-04-24T00:44:19;10.70;99.90
42421;DHT22;28063;48.140;11.588;2023-04-24T00:46:46;10.70;99.90
42421;DHT22;28063;48.140;11.588;2023-04-24T00:49:13;10.70;99.90
42421;DHT22;28063;48.140;11.588;2023-04-24T00:51:39;10.70;99.90
42421;DHT22;28063;48.140;11.588;2023-04-24T00:54:06;10.70;99.90
42421;DHT22;28063;48.140;11.588;2023-04-24T00:56:32;10.70;99.90
42421;DHT22;28063;48.140;11.588;2023-04-24T00:58:58;10.60;99.90
42421;DHT22;28063;48.140;11.588;2023-04-24T01:01:24;10.70;99.90
42421;DHT22;28063;48.140;11.588;2023-04-24T01:03:51;10.60;99.90
42421;DHT22;28063;48.140;11.588;2023-04-24T01:06:17;10.60;99.90
42421;DHT22;28063;48.140;11.588;2023-04-24T01:08:43;10.60;99.90
42421;DHT22;28063;48.140;11.588;2023-04-24T01:11:10;10.60;99.90
42421;DHT22;28063;48.140;11.588;2023-04-24T01:13:36;10.50;99.90
42421;DHT22;28063;48.140;11.588;2023-04-24T01:16:05;10.50;99.90
42421;DHT22;28063;48.140;11.588;2023-04-24T01:18:31;10.50;99.90
42421;DHT22;28063;48.140;11.588;2023-04-24T01:20:59;10.50;99.90
42421;DHT22;28063;48.140;11.588;2023-04-24T01:23:25;10.50;99.90
42421;DHT22;28063;48.140;11.588;2023-04-24T01:25:52;10.50;99.90
42421;DHT22;28063;48.140;11.588;2023-04-24T01:28:18;10.50;99.90
42421;DHT22;28063;48.140;11.588;2023-04-24T01:30:44;10.50;99.90
42421;DHT22;28063;48.140;11.588;2023-04-24T01:33:10;10.50;99.90
42421;DHT22;28063;48.140;11.588;2023-04-24T01:35:36;10.50;99.90
42421;DHT22;28063;48.140;11.588;2023-04-24T01:38:03;10.50;99.90
42421;DHT22;28063;48.140;11.588;2023-04-24T01:40:29;10.50;99.90
42421;DHT22;28063;48.140;11.588;2023-04-24T01:42:55;10.40;99.90
42421;DHT22;28063;48.140;11.588;2023-04-24T01:45:20;10.40;99.90
42421;DHT22;28063;48.140;11.588;2023-04-24T01:47:46;10.40;99.90
42421;DHT22;28063;48.140;11.588;2023-04-24T01:50:15;10.40;99.90
42421;DHT22;28063;48.140;11.588;2023-04-24T01:52:41;10.40;99.90
42421;DHT22;28063;48.140;11.588;2023-04-24T01:55:07;10.40;99.90
42421;DHT22;28063;48.140;11.588;2023-04-24T01:57:34;10.40;99.90
42421;DHT22;28063;48.140;11.588;2023-04-24T02:00:00;10.40;99.90
42421;DHT22;28063;48.140;11.588;2023-04-24T02:02:26;10.40;99.90
42421;DHT22;28063;48.140;11.588;2023-04-24T02:04:55;10.40;99.90
42421;DHT22;28063;48.140;11.588;2023-04-24T02:07:21;10.30;99.90
42421;DHT22;28063;48.140;11.588;2023-04-24T02:09:46;10.30;99.90
42421;DHT22;28063;48.140;11.588;2023-04-24T02:12:12;10.30;99.90
42421;DHT22;28063;48.140;11.588;2023-04-24T02:14:44;10.30;99.90
42421;DHT22;28063;48.140;11.588;2023-04-24T02:17:10;10.30;99.90
42421;DHT22;28063;48.140;11.588;2023-04-24T02:19:37;10.30;99.90
42421;DHT22;28063;48.140;11.588;2023-04-24T02:22:03;10.30;99.90
42421;DHT22;28063;48.140;11.588;2023-04-24T02:24:28;10.30;99.90
42421;DHT22;28063;48.140;11.588;2023-04-24T02:26:54;10.30;99.90
42421;DHT22;28063;48.140;11.588;2023-04-24T02:29:20;10.30;99.90
42421;DHT22;28063;48.140;11.588;2023-04-24T02:31:45;10.30;99.90
42421;DHT22;28063;48.140;11.588;2023-04-24T02:34:11;10.30;99.90
42421;DHT22;28063;48.140;11.588;2023-04-24T02:36:37;10.30;99.90
42421;DHT22;28063;48.140;11.588;2023-04-24T02:39:02;10.30;99.90
42421;DHT22;28063;48.140;11.588;2023-04-24T02:41:29;10.30;99.90
42421;DHT22;28063;48.140;11.588;2023-04-24T02:43:58;10.30;99.90
42421;DHT22;28063;48.140;11.588;2023-04-24T02:46:24;10.30;99.90
42421;DHT22;28063;48.140;11.588;2023-04-24T02:48:50;10.40;99.90
42421;DHT22;28063;48.140;11.588;2023-04-24T02:51:15;10.40;99.90
42421;DHT22;28063;48.140;11.588;2023-04-24T02:53:41;10.40;99.90
42421;DHT22;28063;48.140;11.588;2023-04-24T02:56:06;10.30;99.90
42421;DHT22;28063;48.140;11.588;2023-04-24T02:58:32;10.30;99.90
42421;DHT22;28063;48.140;11.588;2023-04-24T03:00:58;10.20;99.90
42421;DHT22;28063;48.140;11.588;2023-04-24T03:03:24;10.20;99.90
42421;DHT22;28063;48.140;11.588;2023-04-24T03:05:49;10.20;99.90
42421;DHT22;28063;48.140;11.588;2023-04-24T03:08:15;10.20;99.90
42421;DHT22;28063;48.140;11.588;2023-04-24T03:10:41;10.20;99.90
42421;DHT22;28063;48.140;11.588;2023-04-24T03:13:07;10.20;99.90
42421;DHT22;28063;48.140;11.588;2023-04-24T03:15:32;10.20;99.90
42421;DHT22;28063;48.140;11.588;2023-04-24T03:17:58;10.10;99.90
42421;DHT22;28063;48.140;11.588;2023-04-24T03:20:24;10.10;99.90
42421;DHT22;28063;48.140;11.588;2023-04-24T03:22:50;10.10;99.90
42421;DHT22;28063;48.140;11.588;2023-04-24T03:25:15;10.00;99.90
42421;DHT22;28063;48.140;11.588;2023-04-24T03:27:41;10.00;99.90
42421;DHT22;28063;48.140;11.588;2023-04-24T03:30:07;10.00;99.90
42421;DHT22;28063;48.140;11.588;2023-04-24T03:32:33;10.00;99.90
42421;DHT22;28063;48.140;11.588;2023-04-24T03:34:59;9.90;99.90
42421;DHT22;28063;48.140;11.588;2023-04-24T03:37:24;10.00;99.90
42421;DHT22;28063;48.140;11.588;2023-04-24T03:39:51;10.00;99.90
42421;DHT22;28063;48.140;11.588;2023-04-24T03:42:17;10.00;99.90
42421;DHT22;28063;48.140;11.588;2023-04-24T03:44:43;9.90;99.90
42421;DHT22;28063;48.140;11.588;2023-04-24T03:47:09;9.90;99.90
42421;DHT22;28063;48.140;11.588;2023-04-24T03:49:35;9.90;99.90
42421;DHT22;28063;48.140;11.588;2023-04-24T03:52:01;9.90;99.90
42421;DHT22;28063;48.140;11.588;2023-04-24T03:54:27;9.90;99.90
42421;DHT22;28063;48.140;11.588;2023-04-24T03:56:52;9.90;99.90
42421;DHT22;28063;48.140;11.588;2023-04-24T03:59:18;9.90;99.90
42421;DHT22;28063;48.140;11.588;2023-04-24T04:01:44;9.90;99.90
42421;DHT22;28063;48.140;11.588;2023-04-24T04:04:10;9.90;99.90
42421;DHT22;28063;48.140;11.588;2023-04-24T04:06:36;9.80;99.90
42421;DHT22;28063;48.140;11.588;2023-04-24T04:09:02;9.80;99.90
42421;DHT22;28063;48.140;11.588;2023-04-24T04:11:28;9.80;99.90
42421;DHT22;28063;48.140;11.588;2023-04-24T04:13:54;9.80;99.90
42421;DHT22;28063;48.140;11.588;2023-04-24T04:16:20;9.80;99.90
42421;DHT22;28063;48.140;11.588;2023-04-24T04:18:46;9.70;99.90
42421;DHT22;28063;48.140;11.588;2023-04-24T04:21:11;9.70;99.90
42421;DHT22;28063;48.140;11.588;2023-04-24T04:23:37;9.70;99.90
42421;DHT22;28063;48.140;11.588;2023-04-24T04:26:04;9.70;99.90
42421;DHT22;28063;48.140;11.588;2023-04-24T04:28:30;9.70;99.90
42421;DHT22;28063;48.140;11.588;2023-04-24T04:30:57;9.80;99.90
42421;DHT22;28063;48.140;11.588;2023-04-24T04:33:24;9.80;99.90
42421;DHT22;28063;48.140;11.588;2023-04-24T04:35:50;9.80;99.90
42421;DHT22;28063;48.140;11.588;2023-04-24T04:38:19;9.70;99.90
42421;DHT22;28063;48.140;11.588;2023-04-24T04:40:45;9.80;99.90
42421;DHT22;28063;48.140;11.588;2023-04-24T04:43:11;9.80;99.90
42421;DHT22;28063;48.140;11.588;2023-04-24T04:45:39;9.80;99.90
42421;DHT22;28063;48.140;11.588;2023-04-24T04:48:06;9.80;99.90
42421;DHT22;28063;48.140;11.588;2023-04-24T04:50:37;9.80;99.90
42421;DHT22;28063;48.140;11.588;2023-04-24T04:53:03;9.80;99.90
42421;DHT22;28063;48.140;11.588;2023-04-24T04:55:29;9.80;99.90
42421;DHT22;28063;48.140;11.588;2023-04-24T04:57:55;9.80;99.90
42421;DHT22;28063;48.140;11.588;2023-04-24T05:00:22;9.80;99.90
42421;DHT22;28063;48.140;11.588;2023-04-24T05:02:50;9.90;99.90
42421;DHT22;28063;48.140;11.588;2023-04-24T05:05:17;9.80;99.90
42421;DHT22;28063;48.140;11.588;2023-04-24T05:07:43;9.90;99.90
42421;DHT22;28063;48.140;11.588;2023-04-24T05:10:09;9.90;99.90
42421;DHT22;28063;48.140;11.588;2023-04-24T05:12:35;10.00;99.90
42421;DHT22;28063;48.140;11.588;2023-04-24T05:15:00;10.00;99.90
42421;DHT22;28063;48.140;11.588;2023-04-24T05:17:26;10.00;99.90
42421;DHT22;28063;48.140;11.588;2023-04-24T05:19:52;10.10;99.90
42421;DHT22;28063;48.140;11.588;2023-04-24T05:22:18;10.20;99.90
42421;DHT22;28063;48.140;11.588;2023-04-24T05:24:46;10.20;99.90
42421;DHT22;28063;48.140;11.588;2023-04-24T05:27:12;10.20;99.90
42421;DHT22;28063;48.140;11.588;2023-04-24T05:29:38;10.20;99.90
42421;DHT22;28063;48.140;11.588;2023-04-24T05:32:04;10.30;99.90
42421;DHT22;28063;48.140;11.588;2023-04-24T05:34:30;10.30;99.90
42421;DHT22;28063;48.140;11.588;2023-04-24T05:36:55;10.30;99.90
42421;DHT22;28063;48.140;11.588;2023-04-24T05:39:21;10.40;99.90
42421;DHT22;28063;48.140;11.588;2023-04-24T05:41:46;10.40;99.90
42421;DHT22;28063;48.140;11.588;2023-04-24T05:44:12;10.40;99.90
42421;DHT22;28063;48.140;11.588;2023-04-24T05:46:38;10.50;99.90
42421;DHT22;28063;48.140;11.588;2023-04-24T05:49:04;10.60;99.90
42421;DHT22;28063;48.140;11.588;2023-04-24T05:51:33;10.70;99.90
42421;DHT22;28063;48.140;11.588;2023-04-24T05:53:58;10.70;99.90
42421;DHT22;28063;48.140;11.588;2023-04-24T05:56:24;10.70;99.90
42421;DHT22;28063;48.140;11.588;2023-04-24T05:58:50;10.70;99.90
42421;DHT22;28063;48.140;11.588;2023-04-24T06:01:16;10.70;99.90
42421;DHT22;28063;48.140;11.588;2023-04-24T06:03:42;10.70;99.90
42421;DHT22;28063;48.140;11.588;2023-04-24T06:06:08;10.80;99.90
42421;DHT22;28063;48.140;11.588;2023-04-24T06:08:35;10.90;99.90
42421;DHT22;28063;48.140;11.588;2023-04-24T06:11:00;11.00;99.90
42421;DHT22;28063;48.140;11.588;2023-04-24T06:13:26;11.20;99.90
42421;DHT22;28063;48.140;11.588;2023-04-24T06:15:52;11.30;99.90
42421;DHT22;28063;48.140;11.588;2023-04-24T06:18:18;11.40;99.90
42421;DHT22;28063;48.140;11.588;2023-04-24T06:20:45;11.70;99.90
42421;DHT22;28063;48.140;11.588;2023-04-24T06:23:11;11.80;99.70
42421;DHT22;28063;48.140;11.588;2023-04-24T06:25:37;11.90;99.00
42421;DHT22;28063;48.140;11.588;2023-04-24T06:28:03;12.00;98.40
42421;DHT22;28063;48.140;11.588;2023-04-24T06:30:29;12.00;98.00
42421;DHT22;28063;48.140;11.588;2023-04-24T06:32:54;11.90;97.90
42421;DHT22;28063;48.140;11.588;2023-04-24T06:35:20;11.80;98.00
42421;DHT22;28063;48.140;11.588;2023-04-24T06:37:46;11.90;98.10
42421;DHT22;28063;48.140;11.588;2023-04-24T06:40:12;11.90;98.00
42421;DHT22;28063;48.140;11.588;2023-04-24T06:42:38;12.00;97.80
42421;DHT22;28063;48.140;11.588;2023-04-24T06:45:04;12.20;97.10
42421;DHT22;28063;48.140;11.588;2023-04-24T06:47:30;12.30;96.90
42421;DHT22;28063;48.140;11.588;2023-04-24T06:49:57;12.30;96.60
42421;DHT22;28063;48.140;11.588;2023-04-24T06:52:26;12.50;96.60
42421;DHT22;28063;48.140;11.588;2023-04-24T06:54:51;12.70;96.10
42421;DHT22;28063;48.140;11.588;2023-04-24T06:57:18;12.80;95.90
42421;DHT22;28063;48.140;11.588;2023-04-24T06:59:43;13.00;95.20
42421;DHT22;28063;48.140;11.588;2023-04-24T07:02:09;13.10;94.60
42421;DHT22;28063;48.140;11.588;2023-04-24T07:04:35;13.20;93.90
42421;DHT22;28063;48.140;11.588;2023-04-24T07:07:00;13.30;93.40
42421;DHT22;28063;48.140;11.588;2023-04-24T07:09:26;13.50;93.20
42421;DHT22;28063;48.140;11.588;2023-04-24T07:11:52;13.70;92.70
42421;DHT22;28063;48.140;11.588;2023-04-24T07:14:20;13.80;91.70
42421;DHT22;28063;48.140;11.588;2023-04-24T07:16:46;13.70;91.60
42421;DHT22;28063;48.140;11.588;2023-04-24T07:19:12;13.70;91.70
42421;DHT22;28063;48.140;11.588;2023-04-24T07:21:38;13.70;91.40
42421;DHT22;28063;48.140;11.588;2023-04-24T07:24:04;13.60;90.40
42421;DHT22;28063;48.140;11.588;2023-04-24T07:26:30;13.50;91.10
42421;DHT22;28063;48.140;11.588;2023-04-24T07:28:56;13.50;91.60
42421;DHT22;28063;48.140;11.588;2023-04-24T07:31:22;13.60;91.40
42421;DHT22;28063;48.140;11.588;2023-04-24T07:33:48;13.80;91.00
42421;DHT22;28063;48.140;11.588;2023-04-24T07:36:14;14.00;90.30
42421;DHT22;28063;48.140;11.588;2023-04-24T07:38:45;14.30;90.20
42421;DHT22;28063;48.140;11.588;2023-04-24T07:41:11;14.50;89.40
42421;DHT22;28063;48.140;11.588;2023-04-24T07:43:36;14.70;87.50
42421;DHT22;28063;48.140;11.588;2023-04-24T07:46:02;14.40;87.10
42421;DHT22;28063;48.140;11.588;2023-04-24T07:48:28;14.10;87.20
42421;DHT22;28063;48.140;11.588;2023-04-24T07:50:53;13.70;88.20
42421;DHT22;28063;48.140;11.588;2023-04-24T07:53:19;13.50;89.30
42421;DHT22;28063;48.140;11.588;2023-04-24T07:55:45;13.40;89.10
42421;DHT22;28063;48.140;11.588;2023-04-24T07:58:11;13.20;89.50
42421;DHT22;28063;48.140;11.588;2023-04-24T08:00:37;13.20;90.20
42421;DHT22;28063;48.140;11.588;2023-04-24T08:03:03;13.40;90.50
42421;DHT22;28063;48.140;11.588;2023-04-24T08:05:28;13.60;90.30
42421;DHT22;28063;48.140;11.588;2023-04-24T08:07:55;13.90;89.40
42421;DHT22;28063;48.140;11.588;2023-04-24T08:10:22;14.10;88.40
42421;DHT22;28063;48.140;11.588;2023-04-24T08:12:47;14.30;87.10
42421;DHT22;28063;48.140;11.588;2023-04-24T08:15:13;14.40;85.70
42421;DHT22;28063;48.140;11.588;2023-04-24T08:17:39;14.50;85.10
42421;DHT22;28063;48.140;11.588;2023-04-24T08:20:05;14.50;85.10
42421;DHT22;28063;48.140;11.588;2023-04-24T08:22:31;14.50;83.10
42421;DHT22;28063;48.140;11.588;2023-04-24T08:24:59;14.20;84.30
42421;DHT22;28063;48.140;11.588;2023-04-24T08:27:25;13.80;85.40
42421;DHT22;28063;48.140;11.588;2023-04-24T08:29:53;13.60;86.50
42421;DHT22;28063;48.140;11.588;2023-04-24T08:32:19;13.30;87.40
42421;DHT22;28063;48.140;11.588;2023-04-24T08:34:44;13.20;88.70
42421;DHT22;28063;48.140;11.588;2023-04-24T08:37:11;13.10;89.90
42421;DHT22;28063;48.140;11.588;2023-04-24T08:39:37;13.10;90.60
42421;DHT22;28063;48.140;11.588;2023-04-24T08:42:03;12.90;91.10
42421;DHT22;28063;48.140;11.588;2023-04-24T08:44:33;12.60;92.40
42421;DHT22;28063;48.140;11.588;2023-04-24T08:47:01;12.10;94.30
42421;DHT22;28063;48.140;11.588;2023-04-24T08:49:28;11.70;95.40
42421;DHT22;28063;48.140;11.588;2023-04-24T08:51:54;11.40;96.30
42421;DHT22;28063;48.140;11.588;2023-04-24T08:54:21;11.50;95.90
42421;DHT22;28063;48.140;11.588;2023-04-24T08:56:48;11.80;96.00
42421;DHT22;28063;48.140;11.588;2023-04-24T08:59:17;12.10;94.20
42421;DHT22;28063;48.140;11.588;2023-04-24T09:01:45;12.10;93.20
42421;DHT22;28063;48.140;11.588;2023-04-24T09:04:12;12.00;92.90
42421;DHT22;28063;48.140;11.588;2023-04-24T09:06:40;11.80;92.80
42421;DHT22;28063;48.140;11.588;2023-04-24T09:09:07;11.70;92.90
42421;DHT22;28063;48.140;11.588;2023-04-24T09:11:33;11.60;92.80
42421;DHT22;28063;48.140;11.588;2023-04-24T09:13:59;11.60;91.10
42421;DHT22;28063;48.140;11.588;2023-04-24T09:16:26;11.60;90.70
42421;DHT22;28063;48.140;11.588;2023-04-24T09:18:52;11.60;90.00
42421;DHT22;28063;48.140;11.588;2023-04-24T09:21:20;11.70;90.70
42421;DHT22;28063;48.140;11.588;2023-04-24T09:23:46;12.00;91.00
42421;DHT22;28063;48.140;11.588;2023-04-24T09:26:13;12.40;90.60
42421;DHT22;28063;48.140;11.588;2023-04-24T09:28:40;12.60;89.50
42421;DHT22;28063;48.140;11.588;2023-04-24T09:31:07;12.80;88.70
42421;DHT22;28063;48.140;11.588;2023-04-24T09:33:34;13.00;87.80
42421;DHT22;28063;48.140;11.588;2023-04-24T09:36:00;13.10;83.70
42421;DHT22;28063;48.140;11.588;2023-04-24T09:38:38;13.10;83.80
42421;DHT22;28063;48.140;11.588;2023-04-24T09:41:07;13.10;84.90
42421;DHT22;28063;48.140;11.588;2023-04-24T09:43:34;13.40;83.00
42421;DHT22;28063;48.140;11.588;2023-04-24T09:46:06;13.60;82.20
42421;DHT22;28063;48.140;11.588;2023-04-24T09:48:33;13.80;81.80
42421;DHT22;28063;48.140;11.588;2023-04-24T09:51:00;14.10;81.10
42421;DHT22;28063;48.140;11.588;2023-04-24T09:53:27;14.30;78.90
42421;DHT22;28063;48.140;11.588;2023-04-24T09:55:53;14.50;75.80
42421;DHT22;28063;48.140;11.588;2023-04-24T09:58:25;14.40;75.70
42421;DHT22;28063;48.140;11.588;2023-04-24T10:00:54;14.30;76.40
42421;DHT22;28063;48.140;11.588;2023-04-24T10:03:20;14.40;76.30
42421;DHT22;28063;48.140;11.588;2023-04-24T10:05:46;14.40;75.50
42421;DHT22;28063;48.140;11.588;2023-04-24T10:08:13;14.60;76.50
42421;DHT22;28063;48.140;11.588;2023-04-24T10:10:41;14.80;76.80
42421;DHT22;28063;48.140;11.588;2023-04-24T10:13:09;15.10;76.00
42421;DHT22;28063;48.140;11.588;2023-04-24T10:15:36;15.30;74.80
42421;DHT22;28063;48.140;11.588;2023-04-24T10:18:02;15.50;72.10
42421;DHT22;28063;48.140;11.588;2023-04-24T10:20:30;15.30;72.30
42421;DHT22;28063;48.140;11.588;2023-04-24T10:22:57;15.20;73.70
42421;DHT22;28063;48.140;11.588;2023-04-24T10:25:26;15.00;74.60
42421;DHT22;28063;48.140;11.588;2023-04-24T10:27:52;15.00;74.10
42421;DHT22;28063;48.140;11.588;2023-04-24T10:30:19;14.90;73.50
42421;DHT22;28063;48.140;11.588;2023-04-24T10:32:45;14.90;74.40
42421;DHT22;28063;48.140;11.588;2023-04-24T10:35:13;15.20;74.10
42421;DHT22;28063;48.140;11.588;2023-04-24T10:37:45;15.50;72.50
42421;DHT22;28063;48.140;11.588;2023-04-24T10:40:16;15.80;71.90
42421;DHT22;28063;48.140;11.588;2023-04-24T10:42:42;16.00;70.10
42421;DHT22;28063;48.140;11.588;2023-04-24T10:45:19;16.00;69.80
42421;DHT22;28063;48.140;11.588;2023-04-24T10:48:01;15.70;70.00
42421;DHT22;28063;48.140;11.588;2023-04-24T10:50:28;15.30;70.60
42421;DHT22;28063;48.140;11.588;2023-04-24T10:53:06;14.80;72.00
42421;DHT22;28063;48.140;11.588;2023-04-24T10:56:04;14.40;73.50
42421;DHT22;28063;48.140;11.588;2023-04-24T10:58:41;14.00;76.70
42421;DHT22;28063;48.140;11.588;2023-04-24T11:03:53;11.90;89.30
42421;DHT22;28063;48.140;11.588;2023-04-24T11:06:32;11.30;91.80
42421;DHT22;28063;48.140;11.588;2023-04-24T11:11:30;11.20;94.60
42421;DHT22;28063;48.140;11.588;2023-04-24T11:16:33;11.90;95.60
42421;DHT22;28063;48.140;11.588;2023-04-24T11:19:28;12.40;94.60
42421;DHT22;28063;48.140;11.588;2023-04-24T11:22:01;12.90;92.70
42421;DHT22;28063;48.140;11.588;2023-04-24T11:30:01;14.10;88.80
42421;DHT22;28063;48.140;11.588;2023-04-24T11:32:40;14.40;83.80
42421;DHT22;28063;48.140;11.588;2023-04-24T11:37:44;14.80;84.50
42421;DHT22;28063;48.140;11.588;2023-04-24T11:40:15;15.30;84.00
42421;DHT22;28063;48.140;11.588;2023-04-24T11:42:46;15.60;80.30
42421;DHT22;28063;48.140;11.588;2023-04-24T11:45:17;15.50;78.20
42421;DHT22;28063;48.140;11.588;2023-04-24T11:47:43;15.30;79.20
42421;DHT22;28063;48.140;11.588;2023-04-24T11:50:12;15.10;77.70
42421;DHT22;28063;48.140;11.588;2023-04-24T11:52:40;14.90;77.50
42421;DHT22;28063;48.140;11.588;2023-04-24T11:55:23;14.80;78.40
42421;DHT22;28063;48.140;11.588;2023-04-24T11:57:54;14.90;78.20
42421;DHT22;28063;48.140;11.588;2023-04-24T12:00:27;15.00;77.10
42421;DHT22;28063;48.140;11.588;2023-04-24T12:03:10;15.10;76.00
42421;DHT22;28063;48.140;11.588;2023-04-24T12:05:37;15.10;75.30
42421;DHT22;28063;48.140;11.588;2023-04-24T12:08:04;15.10;75.90
42421;DHT22;28063;48.140;11.588;2023-04-24T12:10:31;15.00;75.10
42421;DHT22;28063;48.140;11.588;2023-04-24T12:12:58;15.00;76.00
42421;DHT22;28063;48.140;11.588;2023-04-24T12:15:24;15.10;73.70
42421;DHT22;28063;48.140;11.588;2023-04-24T12:17:53;15.10;74.00
42421;DHT22;28063;48.140;11.588;2023-04-24T12:20:31;15.00;72.60
42421;DHT22;28063;48.140;11.588;2023-04-24T12:22:57;14.80;74.00
42421;DHT22;28063;48.140;11.588;2023-04-24T12:25:26;14.70;74.00
42421;DHT22;28063;48.140;11.588;2023-04-24T12:30:31;14.80;74.30
42421;DHT22;28063;48.140;11.588;2023-04-24T12:32:58;14.90;72.40
42421;DHT22;28063;48.140;11.588;2023-04-24T12:35:28;14.90;72.00
42421;DHT22;28063;48.140;11.588;2023-04-24T12:37:54;15.10;69.60
42421;DHT22;28063;48.140;11.588;2023-04-24T12:40:21;15.20;68.50
42421;DHT22;28063;48.140;11.588;2023-04-24T12:42:51;15.20;68.40
42421;DHT22;28063;48.140;11.588;2023-04-24T12:45:17;15.50;67.90
42421;DHT22;28063;48.140;11.588;2023-04-24T12:47:45;15.80;66.70
42421;DHT22;28063;48.140;11.588;2023-04-24T12:50:15;16.10;63.90
42421;DHT22;28063;48.140;11.588;2023-04-24T12:52:41;16.40;61.80
42421;DHT22;28063;48.140;11.588;2023-04-24T12:55:08;16.40;59.40
42421;DHT22;28063;48.140;11.588;2023-04-24T12:57:36;16.40;59.30
42421;DHT22;28063;48.140;11.588;2023-04-24T13:00:03;16.40;59.60
42421;DHT22;28063;48.140;11.588;2023-04-24T13:02:29;16.40;60.00
42421;DHT22;28063;48.140;11.588;2023-04-24T13:04:59;16.50;58.90
42421;DHT22;28063;48.140;11.588;2023-04-24T13:07:25;16.70;58.40
42421;DHT22;28063;48.140;11.588;2023-04-24T13:09:51;17.20;57.90
42421;DHT22;28063;48.140;11.588;2023-04-24T13:12:18;17.50;57.60
42421;DHT22;28063;48.140;11.588;2023-04-24T13:14:43;17.60;57.50
42421;DHT22;28063;48.140;11.588;2023-04-24T13:17:09;17.10;58.40
42421;DHT22;28063;48.140;11.588;2023-04-24T13:19:38;16.40;59.90
42421;DHT22;28063;48.140;11.588;2023-04-24T13:22:04;15.70;61.00
42421;DHT22;28063;48.140;11.588;2023-04-24T13:24:30;15.20;62.80
42421;DHT22;28063;48.140;11.588;2023-04-24T13:26:56;14.90;64.50
42421;DHT22;28063;48.140;11.588;2023-04-24T13:29:22;14.90;65.70
42421;DHT22;28063;48.140;11.588;2023-04-24T13:31:50;14.90;65.90
42421;DHT22;28063;48.140;11.588;2023-04-24T13:34:17;15.10;64.00
42421;DHT22;28063;48.140;11.588;2023-04-24T13:36:43;15.40;63.40
42421;DHT22;28063;48.140;11.588;2023-04-24T13:39:08;15.80;61.60
42421;DHT22;28063;48.140;11.588;2023-04-24T13:41:34;16.20;60.60
42421;DHT22;28063;48.140;11.588;2023-04-24T13:44:02;16.50;59.70
42421;DHT22;28063;48.140;11.588;2023-04-24T13:46:27;16.60;59.10
42421;DHT22;28063;48.140;11.588;2023-04-24T13:48:53;16.50;58.10
42421;DHT22;28063;48.140;11.588;2023-04-24T13:51:19;16.20;58.80
42421;DHT22;28063;48.140;11.588;2023-04-24T13:53:44;15.90;59.50
42421;DHT22;28063;48.140;11.588;2023-04-24T13:56:10;15.60;60.00
42421;DHT22;28063;48.140;11.588;2023-04-24T13:58:38;15.40;60.50
42421;DHT22;28063;48.140;11.588;2023-04-24T14:01:04;15.20;61.40
42421;DHT22;28063;48.140;11.588;2023-04-24T14:03:29;15.10;61.80
42421;DHT22;28063;48.140;11.588;2023-04-24T14:05:56;15.20;60.50
42421;DHT22;28063;48.140;11.588;2023-04-24T14:08:22;15.20;57.10
42421;DHT22;28063;48.140;11.588;2023-04-24T14:10:47;15.20;56.30
42421;DHT22;28063;48.140;11.588;2023-04-24T14:13:13;15.20;55.90
42421;DHT22;28063;48.140;11.588;2023-04-24T14:15:39;15.50;56.50
42421;DHT22;28063;48.140;11.588;2023-04-24T14:18:05;15.50;56.30
42421;DHT22;28063;48.140;11.588;2023-04-24T14:20:31;15.40;57.80
42421;DHT22;28063;48.140;11.588;2023-04-24T14:22:57;15.40;58.80
42421;DHT22;28063;48.140;11.588;2023-04-24T14:25:26;15.40;58.50
42421;DHT22;28063;48.140;11.588;2023-04-24T14:27:52;15.60;58.90
42421;DHT22;28063;48.140;11.588;2023-04-24T14:30:18;16.10;57.70
42421;DHT22;28063;48.140;11.588;2023-04-24T14:32:44;16.40;56.70
42421;DHT22;28063;48.140;11.588;2023-04-24T14:35:10;16.80;56.30
42421;DHT22;28063;48.140;11.588;2023-04-24T14:37:36;16.80;55.30
42421;DHT22;28063;48.140;11.588;2023-04-24T14:40:03;16.70;54.00
42421;DHT22;28063;48.140;11.588;2023-04-24T14:42:30;16.50;54.40
42421;DHT22;28063;48.140;11.588;2023-04-24T14:44:56;16.10;55.20
42421;DHT22;28063;48.140;11.588;2023-04-24T14:47:21;16.00;55.70
42421;DHT22;28063;48.140;11.588;2023-04-24T14:49:48;15.90;55.70
42421;DHT22;28063;48.140;11.588;2023-04-24T14:52:14;15.90;55.00
42421;DHT22;28063;48.140;11.588;2023-04-24T14:54:39;15.80;55.20
42421;DHT22;28063;48.140;11.588;2023-04-24T14:57:05;15.80;54.80
42421;DHT22;28063;48.140;11.588;2023-04-24T14:59:31;15.70;55.20
42421;DHT22;28063;48.140;11.588;2023-04-24T15:01:57;15.80;54.90
42421;DHT22;28063;48.140;11.588;2023-04-24T15:04:27;15.80;54.60
42421;DHT22;28063;48.140;11.588;2023-04-24T15:06:54;15.80;54.50
42421;DHT22;28063;48.140;11.588;2023-04-24T15:09:21;15.90;54.10
42421;DHT22;28063;48.140;11.588;2023-04-24T15:11:47;16.00;53.90
42421;DHT22;28063;48.140;11.588;2023-04-24T15:14:13;16.00;54.40
42421;DHT22;28063;48.140;11.588;2023-04-24T15:16:39;15.70;53.60
42421;DHT22;28063;48.140;11.588;2023-04-24T15:19:05;15.40;54.10
42421;DHT22;28063;48.140;11.588;2023-04-24T15:21:31;15.30;55.20
42421;DHT22;28063;48.140;11.588;2023-04-24T15:23:57;15.30;54.80
42421;DHT22;28063;48.140;11.588;2023-04-24T15:26:23;15.30;53.60
42421;DHT22;28063;48.140;11.588;2023-04-24T15:28:49;15.50;53.30
42421;DHT22;28063;48.140;11.588;2023-04-24T15:31:17;15.50;53.00
42421;DHT22;28063;48.140;11.588;2023-04-24T15:33:43;15.60;53.10